Time;durP1;ratioP1;P1;durP2;ratioP2;P2;SDS_P1;SDS_P2;PMS_P1;PMS_P2;Temp;Humidity;BMP_temperature;BMP_pressure;BME280_temperature;BME280_humidity;BME280_pressure;Samples;Min_cycle;Max_cycle;Signal;HPM_P1;HPM_P2
2023/08/29 00:00:46;;;;;;;7.10;5.00;;;;;;;19.42;85.48;99236.96;128364;1278;109499;-79
2023/08/29 00:04:04;;;;;;;8.60;5.80;;;;;;;19.38;85.83;99235.86;128459;1279;108211;-79
2023/08/29 00:07:09;;;;;;;8.30;5.40;;;;;;;19.30;86.11;99239.54;128463;1284;107718;-79
2023/08/29 00:10:15;;;;;;;6.70;5.30;;;;;;;19.16;86.49;99244.98;128371;1282;107773;-79
2023/08/29 00:13:21;;;;;;;7.70;5.10;;;;;;;19.07;86.88;99231.54;128384;1279;107793;-79
2023/08/29 00:16:26;;;;;;;6.70;5.00;;;;;;;18.96;87.77;99218.25;128440;1279;108861;-79
2023/08/29 00:19:32;;;;;;;6.80;5.10;;;;;;;18.81;88.61;99208.52;128462;1282;107566;-79
2023/08/29 00:22:37;;;;;;;5.20;4.40;;;;;;;18.68;88.59;99203.66;128411;1279;107798;-79
2023/08/29 00:25:43;;;;;;;6.50;5.70;;;;;;;18.61;88.79;99190.86;128415;1283;106709;-80
2023/08/29 00:28:49;;;;;;;5.70;4.60;;;;;;;18.55;88.72;99179.29;128400;1282;107727;-79
2023/08/29 00:31:55;;;;;;;5.60;4.50;;;;;;;18.55;88.64;99158.91;128118;1280;107346;-80
2023/08/29 00:35:00;;;;;;;6.90;5.20;;;;;;;18.60;88.80;99152.44;128119;1279;108041;-79
2023/08/29 00:38:06;;;;;;;6.20;4.50;;;;;;;18.63;88.43;99151.76;128470;1281;108531;-79
2023/08/29 00:41:12;;;;;;;5.70;5.10;;;;;;;18.70;88.36;99150.62;128392;1281;107690;-79
2023/08/29 00:44:18;;;;;;;9.10;5.10;;;;;;;18.73;88.12;99151.94;128273;1280;108408;-79
2023/08/29 00:47:24;;;;;;;6.40;4.80;;;;;;;18.72;88.33;99147.13;128451;1285;107791;-79
2023/08/29 00:50:30;;;;;;;5.60;4.80;;;;;;;18.70;88.42;99152.23;128264;1285;106554;-79
2023/08/29 00:53:37;;;;;;;8.30;5.90;;;;;;;18.73;88.34;99149.35;128352;1279;181787;-79
2023/08/29 00:56:44;;;;;;;5.70;4.50;;;;;;;18.74;88.47;99145.16;128328;1284;107936;-80
2023/08/29 00:59:50;;;;;;;7.00;4.90;;;;;;;18.64;88.38;99138.61;128440;1281;108744;-79
2023/08/29 01:02:57;;;;;;;7.50;5.10;;;;;;;18.60;88.74;99138.06;128451;1279;106710;-79
2023/08/29 01:06:03;;;;;;;6.00;4.70;;;;;;;18.54;88.86;99128.80;128380;1279;106660;-79
2023/08/29 01:09:09;;;;;;;6.20;5.40;;;;;;;18.58;88.63;99127.48;128218;1280;107978;-79
2023/08/29 01:12:18;;;;;;;7.30;5.30;;;;;;;18.60;88.72;99119.23;128409;1283;107650;-79
2023/08/29 01:15:29;;;;;;;6.10;4.90;;;;;;;18.61;88.77;99108.73;128478;1285;107830;-79
2023/08/29 01:18:37;;;;;;;7.70;4.90;;;;;;;18.58;88.81;99106.30;128431;1279;107104;-79
2023/08/29 01:22:07;;;;;;;7.70;5.30;;;;;;;18.59;89.05;99099.26;128369;1279;106917;-79
2023/08/29 01:25:20;;;;;;;7.00;5.00;;;;;;;18.57;88.95;99093.95;128464;1279;107071;-78
2023/08/29 01:28:27;;;;;;;7.50;5.60;;;;;;;18.57;89.24;99090.02;128393;1281;108835;-78
2023/08/29 01:31:35;;;;;;;6.80;4.80;;;;;;;18.56;89.02;99084.05;128381;1282;107773;-78
2023/08/29 01:34:42;;;;;;;6.20;5.10;;;;;;;18.56;89.29;99087.17;128296;1279;107890;-80
2023/08/29 01:37:47;;;;;;;6.20;4.90;;;;;;;18.55;89.18;99085.98;128236;1285;107389;-80
2023/08/29 01:40:53;;;;;;;6.20;5.60;;;;;;;18.57;89.81;99091.80;128293;1279;106986;-80
2023/08/29 01:43:59;;;;;;;8.00;5.40;;;;;;;18.52;89.97;99090.98;128359;1285;107665;-80
2023/08/29 01:47:04;;;;;;;5.10;4.20;;;;;;;18.46;90.32;99086.79;128340;1279;109211;-79
2023/08/29 01:50:12;;;;;;;6.90;5.00;;;;;;;18.39;90.51;99078.73;128556;1278;106630;-79
2023/08/29 01:53:18;;;;;;;7.10;5.40;;;;;;;18.31;91.27;99074.59;128347;1281;108583;-79
2023/08/29 01:56:26;;;;;;;7.30;5.30;;;;;;;18.22;91.90;99065.08;128232;1279;108482;-79
2023/08/29 01:59:33;;;;;;;6.70;6.00;;;;;;;18.18;91.79;99070.59;128361;1285;106997;-79
2023/08/29 02:02:39;;;;;;;6.80;5.10;;;;;;;18.12;92.17;99086.09;128275;1284;107907;-79
2023/08/29 02:05:44;;;;;;;6.00;4.50;;;;;;;18.05;92.29;99103.76;128171;1279;106755;-79
2023/08/29 02:08:50;;;;;;;8.30;5.50;;;;;;;18.08;92.09;99131.61;127991;1279;106488;-79
2023/08/29 02:11:56;;;;;;;6.20;4.80;;;;;;;18.16;91.81;99149.04;128369;1284;107576;-79
2023/08/29 02:15:05;;;;;;;8.80;5.70;;;;;;;18.25;91.99;99145.63;128384;1279;106314;-79
2023/08/29 02:18:10;;;;;;;9.30;5.90;;;;;;;18.20;92.20;99129.19;128271;1285;107036;-79
2023/08/29 02:21:17;;;;;;;6.60;5.60;;;;;;;18.07;92.72;99127.40;128348;1280;106421;-79
2023/08/29 02:24:23;;;;;;;7.20;5.50;;;;;;;17.98;93.36;99121.96;128372;1279;107785;-79
2023/08/29 02:27:29;;;;;;;8.10;5.80;;;;;;;17.84;94.45;99124.58;128385;1279;106503;-79
2023/08/29 02:30:38;;;;;;;6.50;5.70;;;;;;;17.74;94.82;99110.93;128268;1279;106711;-79
2023/08/29 02:33:43;;;;;;;7.50;6.00;;;;;;;17.73;95.02;99113.92;128446;1283;107779;-79
2023/08/29 02:36:49;;;;;;;8.60;5.70;;;;;;;17.73;94.56;99123.89;128382;1285;109458;-80
2023/08/29 02:39:55;;;;;;;8.80;6.00;;;;;;;17.73;94.61;99108.16;128350;1285;106668;-79
2023/08/29 02:43:00;;;;;;;7.30;5.60;;;;;;;17.72;94.40;99107.30;128389;1285;106755;-79
2023/08/29 02:46:07;;;;;;;7.60;5.40;;;;;;;17.77;94.88;99109.43;128185;1281;106823;-79
2023/08/29 02:49:13;;;;;;;6.60;5.80;;;;;;;17.76;94.28;99122.48;128522;1282;107476;-78
2023/08/29 02:52:19;;;;;;;6.50;5.30;;;;;;;17.80;94.18;99129.55;128334;1279;107614;-81
2023/08/29 02:55:24;;;;;;;9.00;5.30;;;;;;;17.86;94.02;99129.31;128377;1282;106401;-78
2023/08/29 02:58:30;;;;;;;6.00;4.90;;;;;;;17.89;93.75;99146.12;128208;1284;107686;-78
2023/08/29 03:01:36;;;;;;;5.90;5.30;;;;;;;17.98;93.71;99153.94;128403;1279;108144;-77
2023/08/29 03:04:42;;;;;;;7.30;5.90;;;;;;;18.03;94.08;99094.78;128370;1284;108646;-77
2023/08/29 03:07:47;;;;;;;8.30;5.60;;;;;;;17.87;95.02;99071.63;128309;1279;106787;-80
2023/08/29 03:10:54;;;;;;;6.10;5.50;;;;;;;17.74;94.76;99093.40;128398;1280;107541;-80
2023/08/29 03:14:00;;;;;;;6.80;5.60;;;;;;;17.73;94.92;99126.05;128262;1279;108446;-80
2023/08/29 03:17:05;;;;;;;6.30;5.50;;;;;;;17.74;95.10;99150.27;128131;1279;107471;-79
2023/08/29 03:20:12;;;;;;;8.20;5.50;;;;;;;17.75;94.96;99144.52;128233;1280;106580;-80
2023/08/29 03:23:18;;;;;;;6.10;5.50;;;;;;;17.77;94.94;99139.39;128406;1283;107583;-79
2023/08/29 03:26:24;;;;;;;6.30;4.80;;;;;;;17.79;94.69;99135.48;128249;1285;106500;-77
2023/08/29 03:29:29;;;;;;;5.50;4.70;;;;;;;17.83;94.73;99138.59;128302;1284;107249;-77
2023/08/29 03:32:35;;;;;;;8.00;5.70;;;;;;;17.84;94.69;99129.08;128379;1278;107823;-77
2023/08/29 03:35:40;;;;;;;6.20;5.60;;;;;;;17.80;95.26;99119.39;128372;1279;107877;-77
2023/08/29 03:38:46;;;;;;;7.10;6.40;;;;;;;17.70;95.90;99114.38;128299;1284;108704;-78
2023/08/29 03:41:51;;;;;;;7.00;6.20;;;;;;;17.59;96.01;99111.23;128223;1284;106782;-78
2023/08/29 03:44:57;;;;;;;8.00;6.70;;;;;;;17.54;96.24;99107.61;128122;1284;107861;-78
2023/08/29 03:48:05;;;;;;;8.20;6.10;;;;;;;17.49;96.74;99104.77;128471;1278;106645;-77
2023/08/29 03:51:10;;;;;;;6.60;6.00;;;;;;;17.42;97.15;99105.92;128256;1284;107701;-77
2023/08/29 03:54:16;;;;;;;7.60;6.80;;;;;;;17.38;96.98;99102.15;128120;1284;107618;-77
2023/08/29 03:57:23;;;;;;;9.80;7.10;;;;;;;17.36;97.41;99097.83;128414;1285;108823;-77
2023/08/29 04:00:28;;;;;;;10.70;7.70;;;;;;;17.31;98.09;99112.37;128315;1279;107095;-77
2023/08/29 04:03:34;;;;;;;9.20;8.30;;;;;;;17.25;98.53;99123.38;128441;1281;107920;-77
2023/08/29 04:06:41;;;;;;;10.40;9.30;;;;;;;17.18;99.19;99118.73;128461;1279;107672;-77
2023/08/29 04:09:46;;;;;;;9.60;8.30;;;;;;;17.09;99.72;99107.63;128093;1285;108568;-77
2023/08/29 04:12:52;;;;;;;9.30;8.30;;;;;;;17.08;99.02;99106.30;128420;1278;106506;-77
2023/08/29 04:16:04;;;;;;;9.50;8.60;;;;;;;17.10;99.28;99101.45;128396;1278;107937;-78
2023/08/29 04:19:10;;;;;;;9.80;8.80;;;;;;;17.10;98.96;99084.36;128498;1282;107629;-77
2023/08/29 04:22:16;;;;;;;9.10;8.20;;;;;;;17.13;98.83;99072.42;128396;1282;107410;-77
2023/08/29 04:25:22;;;;;;;9.50;8.60;;;;;;;17.15;99.21;99073.13;128282;1279;106488;-77
2023/08/29 04:28:27;;;;;;;9.60;7.90;;;;;;;17.13;99.65;99080.13;128288;1295;107166;-77
2023/08/29 04:31:39;;;;;;;10.20;8.50;;;;;;;17.10;99.72;99096.34;128447;1282;107837;-80
2023/08/29 04:34:50;;;;;;;10.70;9.60;;;;;;;17.09;99.71;99101.38;128091;1278;108426;-79
2023/08/29 04:37:55;;;;;;;11.40;7.80;;;;;;;17.09;99.80;99101.87;128504;1279;108738;-79
2023/08/29 04:41:01;;;;;;;9.80;8.00;;;;;;;17.15;99.56;99100.80;128420;1279;107840;-79
2023/08/29 04:44:08;;;;;;;9.20;7.40;;;;;;;17.24;98.81;99099.33;128825;1281;107755;-78
2023/08/29 04:47:13;;;;;;;9.90;7.20;;;;;;;17.34;98.58;99100.67;128199;1279;107793;-79
2023/08/29 04:50:20;;;;;;;8.70;7.90;;;;;;;17.42;98.38;99101.95;128376;1284;107774;-78
2023/08/29 04:53:26;;;;;;;9.30;8.30;;;;;;;17.52;98.32;99094.39;128281;1280;108565;-76
2023/08/29 04:56:31;;;;;;;8.60;7.70;;;;;;;17.55;98.07;99087.44;128441;1282;107869;-76
2023/08/29 04:59:37;;;;;;;9.00;7.40;;;;;;;17.58;97.98;99074.86;128096;1284;106998;-76
2023/08/29 05:02:43;;;;;;;7.30;6.50;;;;;;;17.66;97.72;99058.70;128316;1284;107591;-76
2023/08/29 05:05:51;;;;;;;7.70;7.00;;;;;;;17.77;97.48;99043.45;128005;1281;107974;-77
2023/08/29 05:08:56;;;;;;;7.50;6.80;;;;;;;17.83;97.38;99024.17;128441;1285;107872;-78
2023/08/29 05:12:03;;;;;;;8.30;7.50;;;;;;;17.88;97.21;99016.57;128545;1279;106835;-77
2023/08/29 05:15:11;;;;;;;8.10;7.00;;;;;;;17.85;97.42;99025.45;128339;1283;108841;-76
2023/08/29 05:18:16;;;;;;;7.40;6.60;;;;;;;17.80;97.44;99032.27;128134;1285;107584;-76
2023/08/29 05:21:22;;;;;;;7.50;6.80;;;;;;;17.84;97.80;99022.88;128309;1279;106947;-76
2023/08/29 05:24:30;;;;;;;7.80;6.50;;;;;;;17.89;97.42;99015.52;128430;1284;107710;-76
2023/08/29 05:27:36;;;;;;;8.50;6.40;;;;;;;18.01;97.30;99008.56;128369;1279;105757;-76
2023/08/29 05:30:42;;;;;;;6.50;5.90;;;;;;;18.14;96.98;99013.05;128441;1279;107772;-76
2023/08/29 05:33:48;;;;;;;6.10;5.50;;;;;;;18.25;96.71;99006.08;128367;1279;107713;-77
2023/08/29 05:36:59;;;;;;;7.20;6.10;;;;;;;18.36;96.55;99005.14;128415;1282;108280;-76
2023/08/29 05:40:08;;;;;;;7.80;7.00;;;;;;;18.49;96.49;99012.90;128416;1282;108807;-76
2023/08/29 05:43:15;;;;;;;7.60;6.90;;;;;;;18.61;96.17;99009.17;128462;1279;107445;-76
2023/08/29 05:46:21;;;;;;;7.40;6.70;;;;;;;18.73;96.20;99009.86;128388;1282;107848;-76
2023/08/29 05:49:26;;;;;;;8.40;6.20;;;;;;;18.85;96.03;99001.95;128437;1281;106379;-76
2023/08/29 05:52:32;;;;;;;6.40;5.80;;;;;;;19.02;96.04;98999.58;128546;1284;107962;-76
2023/08/29 05:55:37;;;;;;;7.40;5.80;;;;;;;19.18;95.53;98988.23;128429;1282;108581;-76
2023/08/29 05:58:43;;;;;;;7.40;5.50;;;;;;;19.35;95.51;98977.09;128462;1282;107759;-76
2023/08/29 06:01:48;;;;;;;6.50;5.90;;;;;;;19.55;95.16;98976.05;128455;1281;107914;-77
2023/08/29 06:04:54;;;;;;;6.70;5.70;;;;;;;19.69;94.92;98976.06;128431;1282;108610;-76
2023/08/29 06:08:01;;;;;;;6.40;5.40;;;;;;;19.81;94.95;98988.10;128427;1279;108750;-76
2023/08/29 06:11:06;;;;;;;8.20;6.20;;;;;;;19.89;94.70;98997.45;128467;1282;106958;-76
2023/08/29 06:14:14;;;;;;;7.10;5.20;;;;;;;19.96;94.84;99000.86;128398;1284;106803;-76
2023/08/29 06:17:20;;;;;;;6.80;5.90;;;;;;;20.05;94.46;98991.98;128415;1282;107423;-76
2023/08/29 06:20:25;;;;;;;6.50;5.40;;;;;;;20.14;94.33;98988.86;128448;1281;107767;-76
2023/08/29 06:23:31;;;;;;;7.00;5.20;;;;;;;20.26;94.00;98989.47;128542;1279;107827;-76
2023/08/29 06:26:37;;;;;;;6.20;4.50;;;;;;;20.36;93.84;98990.98;128499;1278;107090;-77
2023/08/29 06:29:43;;;;;;;5.70;5.10;;;;;;;20.46;93.27;98999.40;128398;1284;109307;-77
2023/08/29 06:32:48;;;;;;;6.80;6.10;;;;;;;20.48;93.60;99001.34;128486;1280;108828;-78
2023/08/29 06:35:54;;;;;;;5.70;5.10;;;;;;;20.58;93.40;99002.31;128138;1285;106591;-80
2023/08/29 06:38:59;;;;;;;6.50;4.90;;;;;;;20.71;93.36;98996.50;128274;1279;108447;-79
2023/08/29 06:42:05;;;;;;;6.60;5.10;;;;;;;20.87;92.89;98996.45;128472;1279;106341;-80
2023/08/29 06:45:14;;;;;;;4.70;4.20;;;;;;;21.00;93.11;99002.67;129487;1281;107106;-79
2023/08/29 06:48:20;;;;;;;6.10;3.30;;;;;;;21.12;92.86;99006.14;129040;1278;107728;-80
2023/08/29 06:51:25;;;;;;;5.30;4.70;;;;;;;21.21;92.60;99012.20;128960;1281;107761;-80
2023/08/29 06:54:31;;;;;;;5.50;4.90;;;;;;;21.27;92.38;99018.56;128717;1279;107180;-78
2023/08/29 06:57:37;;;;;;;5.20;4.60;;;;;;;21.29;91.96;99022.45;128629;1285;107037;-79
2023/08/29 07:00:42;;;;;;;7.10;4.70;;;;;;;21.37;92.08;99025.95;128762;1282;107483;-78
2023/08/29 07:03:48;;;;;;;5.20;4.20;;;;;;;21.46;92.21;99027.87;128411;1282;108506;-78
2023/08/29 07:06:53;;;;;;;12.50;5.20;;;;;;;21.60;91.71;99024.87;128402;1281;106603;-78
2023/08/29 07:09:59;;;;;;;5.70;4.30;;;;;;;21.77;91.26;99021.80;128439;1281;107696;-78
2023/08/29 07:13:05;;;;;;;4.80;4.30;;;;;;;21.94;90.90;99022.06;128374;1281;106712;-78
2023/08/29 07:16:11;;;;;;;5.60;4.80;;;;;;;22.06;90.89;99025.59;128577;1281;107813;-79
2023/08/29 07:19:17;;;;;;;5.90;4.60;;;;;;;22.24;90.94;99022.96;128467;1282;107742;-78
2023/08/29 07:22:22;;;;;;;5.70;4.50;;;;;;;22.41;90.58;99030.12;128392;1281;106639;-78
2023/08/29 07:25:41;;;;;;;4.50;4.10;;;;;;;22.51;90.00;99038.02;128395;1282;107525;-78
2023/08/29 07:28:46;;;;;;;5.50;4.70;;;;;;;22.60;90.17;99021.16;128479;1280;107644;-79
2023/08/29 07:31:52;;;;;;;5.80;5.00;;;;;;;22.68;89.62;99018.73;128430;1279;107058;-79
2023/08/29 07:34:58;;;;;;;6.50;5.00;;;;;;;22.71;89.13;99028.63;128378;1279;108664;-79
2023/08/29 07:38:04;;;;;;;5.90;4.50;;;;;;;22.72;89.38;99037.23;128394;1282;107836;-79
2023/08/29 07:41:10;;;;;;;4.50;4.10;;;;;;;22.73;89.13;99029.02;128428;1285;107792;-79
2023/08/29 07:44:16;;;;;;;6.10;4.30;;;;;;;22.78;89.04;99024.27;128458;1288;108648;-79
2023/08/29 07:47:21;;;;;;;5.90;4.40;;;;;;;22.86;88.57;99025.45;128389;1285;108733;-79
2023/08/29 07:50:27;;;;;;;5.70;4.60;;;;;;;22.97;88.55;99021.91;128413;1282;108083;-79
2023/08/29 07:53:33;;;;;;;6.10;4.60;;;;;;;23.11;88.12;99015.54;128412;1281;107836;-79
2023/08/29 07:56:38;;;;;;;6.60;4.80;;;;;;;23.26;88.10;99023.98;128410;1282;107300;-79
2023/08/29 07:59:44;;;;;;;6.10;5.30;;;;;;;23.39;87.89;99019.16;128385;1279;107103;-80
2023/08/29 08:02:49;;;;;;;5.90;5.10;;;;;;;23.49;87.31;99008.42;128435;1279;107649;-78
2023/08/29 08:05:56;;;;;;;6.20;4.80;;;;;;;23.64;87.29;99007.75;128475;1282;107074;-79
2023/08/29 08:09:03;;;;;;;6.20;4.70;;;;;;;23.75;86.79;99018.39;128334;1281;108146;-78
2023/08/29 08:12:09;;;;;;;6.90;4.70;;;;;;;23.87;86.37;99019.67;128392;1281;107760;-79
2023/08/29 08:15:15;;;;;;;6.80;4.70;;;;;;;23.99;86.13;99020.17;128298;1279;107864;-79
2023/08/29 08:18:24;;;;;;;8.80;5.70;;;;;;;24.08;85.55;99034.80;128446;1279;108710;-80
2023/08/29 08:21:29;;;;;;;7.10;5.20;;;;;;;24.05;85.22;99038.22;128132;1293;108594;-79
2023/08/29 08:24:35;;;;;;;9.90;5.40;;;;;;;24.07;85.64;99036.26;128438;1279;106646;-80
2023/08/29 08:27:41;;;;;;;7.80;5.10;;;;;;;24.11;85.10;99035.98;128484;1278;107759;-80
2023/08/29 08:30:46;;;;;;;6.80;5.70;;;;;;;24.12;85.28;99030.16;128554;1290;108431;-79
2023/08/29 08:33:52;;;;;;;6.50;5.30;;;;;;;24.09;85.14;99034.63;128465;1281;107054;-80
2023/08/29 08:36:57;;;;;;;6.50;5.40;;;;;;;24.10;84.98;99035.55;128380;1289;107826;-79
2023/08/29 08:40:09;;;;;;;8.00;4.80;;;;;;;24.12;84.78;99036.70;128396;1282;106702;-80
2023/08/29 08:43:16;;;;;;;5.40;3.70;;;;;;;24.23;84.97;99031.09;128429;1281;107633;-79
2023/08/29 08:46:23;;;;;;;8.60;6.10;;;;;;;24.37;84.63;99028.84;128410;1281;108454;-78
2023/08/29 08:49:29;;;;;;;6.90;5.70;;;;;;;24.49;84.08;99027.91;128462;1281;108400;-79
2023/08/29 08:52:35;;;;;;;9.00;6.00;;;;;;;24.62;83.81;99024.59;128414;1292;108703;-80
2023/08/29 08:55:41;;;;;;;7.50;5.80;;;;;;;24.74;83.74;99033.61;128375;1282;107795;-80
2023/08/29 08:58:47;;;;;;;8.00;5.10;;;;;;;24.81;83.71;99055.80;128457;1282;107713;-80
2023/08/29 09:01:57;;;;;;;8.80;6.10;;;;;;;24.86;83.52;99072.81;128700;1282;108019;-80
2023/08/29 09:05:03;;;;;;;7.40;5.90;;;;;;;24.81;83.33;99074.09;128544;1282;106440;-80
2023/08/29 09:08:08;;;;;;;5.10;4.40;;;;;;;24.75;82.89;99066.67;129071;1282;107830;-80
2023/08/29 09:11:17;;;;;;;7.20;5.10;;;;;;;24.75;82.99;99072.77;128358;1286;107861;-80
2023/08/29 09:14:24;;;;;;;6.70;5.00;;;;;;;24.72;82.73;99067.23;128363;1292;109578;-79
2023/08/29 09:17:30;;;;;;;6.60;5.60;;;;;;;24.74;82.68;99074.73;128530;1284;107488;-81
2023/08/29 09:20:36;;;;;;;8.20;6.20;;;;;;;24.80;82.31;99057.77;129097;1281;108039;-80
2023/08/29 09:23:42;;;;;;;7.20;5.70;;;;;;;24.85;82.05;99056.00;128592;1285;107828;-79
2023/08/29 09:26:48;;;;;;;8.30;6.40;;;;;;;24.92;81.95;99055.45;128585;1279;107506;-79
2023/08/29 09:29:54;;;;;;;8.30;6.40;;;;;;;24.97;81.85;99044.62;128613;1282;107885;-80
2023/08/29 09:33:09;;;;;;;6.80;5.80;;;;;;;25.08;81.43;99038.64;128574;1279;107651;-79
2023/08/29 09:36:15;;;;;;;6.70;5.90;;;;;;;25.19;81.29;99056.61;128924;1292;108689;-79
2023/08/29 09:39:22;;;;;;;6.90;6.00;;;;;;;25.21;80.95;99058.69;128661;1281;106697;-79
2023/08/29 09:42:29;;;;;;;8.80;6.70;;;;;;;25.23;80.89;99057.77;128895;1281;108858;-80
2023/08/29 09:45:37;;;;;;;7.60;5.50;;;;;;;25.31;80.52;99058.90;128427;1286;107810;-80
2023/08/29 09:48:56;;;;;;;6.80;5.80;;;;;;;25.42;80.51;99045.35;128430;1284;106780;-79
2023/08/29 09:52:02;;;;;;;7.30;6.20;;;;;;;25.52;80.03;99025.70;128373;1282;108442;-79
2023/08/29 09:55:12;;;;;;;8.20;6.70;;;;;;;25.61;79.60;99014.49;128419;1281;107875;-80
2023/08/29 09:58:22;;;;;;;8.10;6.50;;;;;;;25.72;79.38;99005.36;128245;1283;107854;-81
2023/08/29 10:01:29;;;;;;;8.00;6.40;;;;;;;25.76;79.29;98996.90;128402;1285;108748;-79
2023/08/29 10:04:37;;;;;;;8.30;6.60;;;;;;;25.72;79.12;98999.62;128593;1289;107866;-79
2023/08/29 10:07:45;;;;;;;9.00;6.80;;;;;;;25.63;78.93;99008.04;128255;1279;109390;-79
2023/08/29 10:10:55;;;;;;;9.10;6.80;;;;;;;25.57;78.82;99015.06;128407;1279;107201;-79
2023/08/29 10:14:04;;;;;;;7.80;6.20;;;;;;;25.57;78.48;99011.89;128450;1283;107491;-79
2023/08/29 10:17:10;;;;;;;8.10;6.80;;;;;;;25.60;78.56;99008.27;128439;1281;106929;-81
2023/08/29 10:20:18;;;;;;;7.30;6.60;;;;;;;25.60;78.38;99018.82;128405;1279;107871;-81
2023/08/29 10:23:24;;;;;;;9.30;7.30;;;;;;;25.60;77.58;99018.70;128388;1285;107690;-81
2023/08/29 10:26:30;;;;;;;11.10;7.50;;;;;;;25.50;76.69;99018.88;128415;1284;107683;-79
2023/08/29 10:29:37;;;;;;;7.20;6.50;;;;;;;25.45;77.44;99021.02;128364;1293;107933;-78
2023/08/29 10:32:44;;;;;;;7.10;6.40;;;;;;;25.64;77.67;99028.56;128523;1282;107683;-79
2023/08/29 10:35:51;;;;;;;8.40;6.60;;;;;;;25.84;77.38;99031.39;128456;1282;107612;-79
2023/08/29 10:38:59;;;;;;;8.90;7.10;;;;;;;26.02;76.78;99032.92;128365;1292;107626;-79
2023/08/29 10:42:09;;;;;;;8.40;6.20;;;;;;;26.19;76.88;99024.97;128447;1278;107208;-80
2023/08/29 10:45:15;;;;;;;7.60;6.30;;;;;;;26.28;76.47;99019.05;128234;1282;108014;-81
2023/08/29 10:48:45;;;;;;;8.20;6.40;;;;;;;26.23;74.68;99024.77;128400;1285;106674;-80
2023/08/29 10:52:09;;;;;;;9.70;7.00;;;;;;;25.88;74.89;99032.42;128449;1289;107264;-78
2023/08/29 10:55:23;;;;;;;8.80;5.70;;;;;;;25.66;76.09;99039.23;128294;1284;107786;-80
2023/08/29 10:58:40;;;;;;;7.80;6.00;;;;;;;25.70;76.20;99048.42;128368;1296;107109;-79
2023/08/29 11:01:55;;;;;;;6.50;5.30;;;;;;;25.71;76.01;99061.20;128088;1280;107235;-81
2023/08/29 11:05:16;;;;;;;6.10;5.50;;;;;;;25.86;76.64;99070.52;128069;1284;107063;-81
2023/08/29 11:08:23;;;;;;;8.90;6.80;;;;;;;25.99;76.26;99078.38;128396;1281;107009;-84
2023/08/29 11:11:29;;;;;;;8.90;6.80;;;;;;;25.92;74.88;99086.13;128508;1285;107177;-82
2023/08/29 11:14:51;;;;;;;7.50;6.20;;;;;;;25.79;76.05;99086.73;128495;1285;108568;-82
2023/08/29 11:18:29;;;;;;;7.30;6.30;;;;;;;25.91;76.32;99094.43;128493;1285;106949;-81
2023/08/29 11:21:35;;;;;;;8.90;6.30;;;;;;;26.01;75.90;99093.45;128548;1291;107892;-82
2023/08/29 11:24:41;;;;;;;9.20;7.70;;;;;;;25.97;75.05;99092.98;128486;1284;106494;-81
2023/08/29 11:27:48;;;;;;;7.80;7.00;;;;;;;25.70;74.79;99094.37;128543;1282;108452;-81
2023/08/29 11:30:54;;;;;;;8.60;7.30;;;;;;;25.46;74.04;99102.95;128631;1292;108728;-81
2023/08/29 11:34:00;;;;;;;8.60;6.50;;;;;;;25.20;74.88;99107.89;128535;1291;108856;-81
2023/08/29 11:37:10;;;;;;;9.70;7.90;;;;;;;25.05;75.19;99104.91;128534;1282;107972;-81
2023/08/29 11:40:19;;;;;;;10.00;8.30;;;;;;;24.92;75.70;99097.52;128532;1282;107832;-81
2023/08/29 11:43:25;;;;;;;7.00;6.30;;;;;;;24.93;75.53;99097.68;128482;1284;107963;-81
2023/08/29 11:46:35;;;;;;;8.10;7.30;;;;;;;25.02;75.94;99091.77;128511;1282;107921;-81
2023/08/29 11:49:43;;;;;;;7.90;6.70;;;;;;;25.01;75.89;99093.84;128219;1282;107120;-81
2023/08/29 11:52:49;;;;;;;8.00;7.10;;;;;;;25.00;75.97;99100.23;128471;1282;107629;-81
2023/08/29 11:55:55;;;;;;;9.80;8.80;;;;;;;24.95;75.32;99104.73;128541;1292;106662;-81
2023/08/29 11:59:00;;;;;;;9.40;8.50;;;;;;;24.78;75.22;99108.73;128470;1293;108485;-82
2023/08/29 12:02:07;;;;;;;11.60;9.30;;;;;;;24.65;75.67;99109.52;128351;1283;106194;-81
2023/08/29 12:05:13;;;;;;;9.80;8.40;;;;;;;24.56;76.16;99103.30;128532;1285;107747;-82
2023/08/29 12:08:33;;;;;;;10.30;9.30;;;;;;;24.52;76.50;99106.99;128508;1284;107002;-81
2023/08/29 12:11:43;;;;;;;10.40;8.50;;;;;;;24.37;76.88;99108.39;128532;1282;107943;-81
2023/08/29 12:14:52;;;;;;;10.10;8.00;;;;;;;24.25;77.31;99106.86;128479;1282;106576;-82
2023/08/29 12:17:58;;;;;;;8.10;7.40;;;;;;;24.08;77.68;99104.23;128454;1283;108368;-82
2023/08/29 12:21:18;;;;;;;9.00;7.20;;;;;;;24.02;77.94;99106.01;128633;1284;107750;-82
2023/08/29 12:24:23;;;;;;;9.20;7.20;;;;;;;24.05;78.10;99104.98;128601;1292;107259;-81
2023/08/29 12:27:29;;;;;;;8.40;7.60;;;;;;;24.04;77.94;99105.20;128987;1282;107867;-82
2023/08/29 12:30:34;;;;;;;7.10;6.40;;;;;;;24.00;78.10;99101.59;129281;1292;108251;-81
2023/08/29 12:33:40;;;;;;;7.10;6.40;;;;;;;24.08;78.10;99106.57;130687;1280;107901;-83
2023/08/29 12:36:45;;;;;;;7.10;6.10;;;;;;;24.16;77.89;99110.02;129903;1279;107847;-81
2023/08/29 12:39:51;;;;;;;7.70;6.90;;;;;;;24.22;77.67;99117.92;128842;1279;108877;-81
2023/08/29 12:42:57;;;;;;;8.20;7.40;;;;;;;24.28;77.11;99115.36;128570;1283;107774;-81
2023/08/29 12:46:02;;;;;;;10.10;8.00;;;;;;;24.22;77.46;99109.15;129205;1282;105888;-81
2023/08/29 12:49:17;;;;;;;10.00;8.00;;;;;;;24.23;77.66;99101.02;127398;1293;635902;-82
2023/08/29 12:52:23;;;;;;;8.50;7.50;;;;;;;24.37;77.64;99095.41;130706;1263;107150;-79
2023/08/29 12:55:28;;;;;;;8.30;7.30;;;;;;;24.51;77.58;99101.22;130588;1263;108720;-78
2023/08/29 12:58:34;;;;;;;7.60;6.80;;;;;;;24.62;77.03;99090.48;130472;1263;107344;-77
2023/08/29 13:01:39;;;;;;;7.50;6.70;;;;;;;24.74;76.80;99088.55;130257;1266;239351;-78
2023/08/29 13:04:45;;;;;;;9.30;8.30;;;;;;;24.70;76.58;99092.70;130606;1258;106455;-78
2023/08/29 13:07:51;;;;;;;8.70;7.80;;;;;;;24.48;76.40;99095.42;130383;1259;106995;-80
2023/08/29 13:10:57;;;;;;;9.10;8.30;;;;;;;24.23;77.05;99101.90;130770;1263;107901;-79
2023/08/29 13:14:03;;;;;;;8.00;7.20;;;;;;;24.05;77.44;99101.71;130585;1273;107169;-79
2023/08/29 13:17:09;;;;;;;8.10;7.30;;;;;;;24.04;77.92;99097.41;130588;1264;108065;-78
2023/08/29 13:20:14;;;;;;;9.00;8.20;;;;;;;23.92;77.58;99092.96;130569;1263;107642;-79
2023/08/29 13:23:20;;;;;;;8.80;7.80;;;;;;;23.87;77.85;99091.60;130498;1264;107646;-78
2023/08/29 13:26:25;;;;;;;8.40;7.40;;;;;;;23.80;78.03;99088.25;130560;1260;106890;-77
2023/08/29 13:29:32;;;;;;;7.90;7.10;;;;;;;23.87;78.02;99085.55;130631;1263;108545;-77
2023/08/29 13:32:39;;;;;;;7.90;7.10;;;;;;;23.94;77.71;99083.60;130980;1264;109242;-77
2023/08/29 13:35:44;;;;;;;7.90;7.10;;;;;;;23.97;77.94;99086.83;130763;1258;107659;-77
2023/08/29 13:38:50;;;;;;;8.70;7.90;;;;;;;24.02;78.22;99090.75;130626;1257;106894;-77
2023/08/29 13:41:56;;;;;;;9.20;8.30;;;;;;;24.03;77.94;99087.05;130638;1260;105808;-77
2023/08/29 13:45:03;;;;;;;9.70;8.80;;;;;;;23.92;77.76;99086.38;130620;1261;106434;-78
2023/08/29 13:48:09;;;;;;;9.60;8.70;;;;;;;23.79;78.18;99092.11;130807;1257;106791;-77
2023/08/29 13:51:17;;;;;;;8.10;7.30;;;;;;;23.69;78.24;99095.17;130600;1263;106783;-78
2023/08/29 13:54:22;;;;;;;8.40;7.60;;;;;;;23.64;78.77;99098.04;130613;1269;107776;-77
2023/08/29 13:57:28;;;;;;;8.90;8.00;;;;;;;23.69;78.66;99101.27;130636;1261;108728;-78
2023/08/29 14:00:34;;;;;;;9.50;8.60;;;;;;;23.76;78.61;99098.36;130682;1260;107492;-77
2023/08/29 14:03:39;;;;;;;9.60;8.60;;;;;;;23.72;78.44;99096.83;130665;1257;107843;-77
2023/08/29 14:06:45;;;;;;;8.80;8.00;;;;;;;23.67;78.79;99103.06;130614;1261;107678;-77
2023/08/29 14:09:51;;;;;;;8.90;8.00;;;;;;;23.62;79.32;99112.52;131438;1253;109448;-78
2023/08/29 14:12:56;;;;;;;9.10;8.30;;;;;;;23.59;79.17;99117.04;131402;1251;107750;-76
2023/08/29 14:16:03;;;;;;;9.40;8.50;;;;;;;23.59;79.25;99119.92;131430;1251;106505;-77
2023/08/29 14:19:09;;;;;;;10.40;8.80;;;;;;;23.47;79.07;99116.29;131767;1247;108713;-78